createdAt,value
2023-12-07T00:01:41.744Z,26.20
2023-12-07T00:04:45.743Z,24.87
2023-12-07T00:07:49.453Z,23.80
2023-12-07T00:10:53.214Z,21.50
2023-12-07T00:13:56.964Z,22.50
2023-12-07T00:17:02.148Z,22.97
2023-12-07T00:20:06.966Z,27.43
2023-12-07T00:23:10.738Z,25.67
2023-12-07T00:26:14.526Z,23.37
2023-12-07T00:29:18.408Z,21.47
2023-12-07T00:32:23.685Z,25.13
2023-12-07T00:35:30.231Z,27.40
2023-12-07T00:38:34.581Z,25.47
2023-12-07T00:41:40.428Z,23.70
2023-12-07T00:44:44.283Z,27.00
2023-12-07T00:47:49.419Z,24.17
2023-12-07T00:50:53.119Z,22.90
2023-12-07T00:53:57.177Z,22.83
2023-12-07T00:57:00.921Z,25.50
2023-12-07T01:00:05.474Z,25.23
2023-12-07T01:03:10.670Z,26.33
2023-12-07T01:06:15.493Z,27.47
2023-12-07T01:09:19.261Z,26.00
2023-12-07T01:12:23.270Z,24.83
2023-12-07T01:15:27.164Z,24.83
2023-12-07T01:18:32.411Z,24.17
2023-12-07T01:21:36.170Z,24.87
2023-12-07T01:24:40.005Z,21.33
2023-12-07T01:27:43.800Z,22.97
2023-12-07T01:30:47.730Z,27.10
2023-12-07T01:33:52.977Z,24.67
2023-12-07T01:36:56.814Z,24.30
2023-12-07T01:40:00.723Z,26.90
2023-12-07T01:43:04.655Z,23.10
2023-12-07T01:46:08.782Z,26.00
2023-12-07T01:49:14.262Z,26.03
2023-12-07T01:52:19.498Z,23.83
2023-12-07T01:55:25.660Z,24.90
2023-12-07T01:58:29.744Z,24.50
2023-12-07T02:01:33.641Z,31.23
2023-12-07T02:04:39.638Z,24.60
2023-12-07T02:07:44.182Z,23.90
2023-12-07T02:10:48.108Z,24.07
2023-12-07T02:13:56.273Z,24.27
2023-12-07T02:17:13.874Z,25.87
2023-12-07T02:20:31.041Z,21.43
2023-12-07T02:23:46.462Z,26.53
2023-12-07T02:26:55.159Z,29.70
2023-12-07T02:29:59.025Z,23.23
2023-12-07T02:33:03.131Z,24.33
2023-12-07T02:36:07.932Z,21.70
2023-12-07T02:39:13.815Z,23.20
2023-12-07T02:42:19.960Z,24.10
2023-12-07T02:45:24.342Z,28.13
2023-12-07T02:48:28.557Z,23.30
2023-12-07T02:51:32.619Z,22.13
2023-12-07T02:54:36.433Z,24.20
2023-12-07T02:57:41.725Z,24.67
2023-12-07T03:00:45.494Z,22.63
2023-12-07T03:03:49.465Z,22.33
2023-12-07T03:06:53.303Z,28.33
2023-12-07T03:09:57.189Z,27.30
2023-12-07T03:13:02.414Z,25.03
2023-12-07T03:16:11.723Z,26.17
2023-12-07T03:19:15.595Z,28.00
2023-12-07T03:22:19.968Z,24.63
2023-12-07T03:25:23.938Z,25.23
2023-12-07T03:28:29.137Z,24.60
2023-12-07T03:31:33.936Z,24.33
2023-12-07T03:34:37.826Z,26.60
2023-12-07T03:37:41.693Z,22.70
2023-12-07T03:40:49.009Z,29.90
2023-12-07T03:43:54.981Z,27.67
2023-12-07T03:46:59.043Z,21.50
2023-12-07T03:50:02.765Z,19.43
2023-12-07T03:53:06.528Z,23.40
2023-12-07T03:56:11.509Z,24.93
2023-12-07T03:59:16.710Z,20.90
2023-12-07T04:02:20.432Z,20.90
2023-12-07T04:05:24.245Z,20.17
2023-12-07T04:08:27.967Z,23.50
2023-12-07T04:11:31.788Z,25.90
2023-12-07T04:14:36.910Z,21.60
2023-12-07T04:17:40.759Z,19.97
2023-12-07T04:20:44.526Z,19.57
2023-12-07T04:23:48.366Z,18.57
2023-12-07T04:26:52.077Z,23.43
2023-12-07T04:29:58.187Z,19.37
2023-12-07T04:33:02.954Z,25.07
2023-12-07T04:36:08.982Z,20.97
2023-12-07T04:39:12.714Z,20.53
2023-12-07T04:42:16.542Z,22.17
2023-12-07T04:45:22.155Z,20.57
2023-12-07T04:48:26.939Z,21.07
2023-12-07T04:51:30.672Z,19.83
2023-12-07T04:54:34.407Z,19.10
2023-12-07T04:57:39.297Z,17.63
2023-12-07T05:00:44.668Z,19.43
2023-12-07T05:03:48.602Z,22.27
2023-12-07T05:06:53.160Z,20.90
2023-12-07T05:09:56.984Z,21.47
2023-12-07T05:13:00.927Z,19.77
2023-12-07T05:16:07.053Z,21.60
2023-12-07T05:19:11.122Z,17.93
2023-12-07T05:22:16.595Z,19.53
2023-12-07T05:25:21.244Z,18.07
2023-12-07T05:28:25.085Z,20.13
2023-12-07T05:31:30.380Z,18.03
2023-12-07T05:34:34.814Z,20.33
2023-12-07T05:37:39.192Z,15.80
2023-12-07T05:40:43.162Z,19.10
2023-12-07T05:43:47.109Z,21.87
2023-12-07T05:46:52.444Z,20.40
2023-12-07T05:49:58.717Z,18.20
2023-12-07T05:53:02.455Z,17.90
2023-12-07T05:56:07.171Z,19.20
2023-12-07T05:59:11.098Z,18.87
2023-12-07T06:02:16.336Z,18.90
2023-12-07T06:05:20.347Z,16.73
2023-12-07T06:08:24.211Z,16.47
2023-12-07T06:11:27.971Z,18.47
2023-12-07T06:14:33.359Z,15.50
2023-12-07T06:17:38.555Z,20.97
2023-12-07T06:20:43.318Z,17.20
2023-12-07T06:23:47.629Z,18.87
2023-12-07T06:26:51.523Z,21.27
2023-12-07T06:29:55.274Z,17.10
2023-12-07T06:33:00.409Z,21.57
2023-12-07T06:36:05.382Z,20.00
2023-12-07T06:39:09.574Z,20.43
2023-12-07T06:42:13.444Z,22.17
2023-12-07T06:45:30.758Z,16.97
2023-12-07T06:48:36.410Z,19.40
2023-12-07T06:51:40.343Z,17.73
2023-12-07T06:54:44.156Z,18.33
2023-12-07T06:57:47.945Z,18.17
2023-12-07T07:00:51.773Z,16.27
2023-12-07T07:03:57.808Z,18.23
2023-12-07T07:07:01.929Z,16.43
2023-12-07T07:10:06.590Z,17.60
2023-12-07T07:13:10.613Z,16.77
2023-12-07T07:16:14.494Z,17.83
2023-12-07T07:19:19.879Z,16.17
2023-12-07T07:22:23.782Z,15.63
2023-12-07T07:25:27.730Z,17.67
2023-12-07T07:28:31.790Z,15.20
2023-12-07T07:31:36.736Z,18.17
2023-12-07T07:34:42.138Z,16.93
2023-12-07T07:37:46.422Z,16.87
2023-12-07T07:40:50.278Z,19.63
2023-12-07T07:43:54.053Z,17.10
2023-12-07T07:46:58.129Z,19.17
2023-12-07T07:50:06.655Z,15.20
2023-12-07T07:53:10.628Z,15.27
2023-12-07T07:56:14.949Z,17.30
2023-12-07T07:59:18.700Z,15.67
2023-12-07T08:02:23.821Z,18.67
2023-12-07T08:05:29.001Z,17.63
2023-12-07T08:08:33.814Z,15.87
2023-12-07T08:11:37.553Z,15.23
2023-12-07T08:14:44.959Z,18.57
2023-12-07T08:17:49.022Z,16.97
2023-12-07T08:20:54.198Z,16.50
2023-12-07T08:23:57.964Z,16.57
2023-12-07T08:27:01.806Z,18.73
2023-12-07T08:30:07.226Z,17.60
2023-12-07T08:33:11.111Z,19.60
2023-12-07T08:36:17.584Z,21.17
2023-12-07T08:39:21.305Z,20.87
2023-12-07T08:42:25.119Z,19.80
2023-12-07T08:45:29.011Z,18.70
2023-12-07T08:48:33.294Z,20.20
2023-12-07T08:51:39.290Z,21.93
2023-12-07T08:54:43.183Z,19.00
2023-12-07T08:57:46.966Z,17.40
2023-12-07T09:00:51.746Z,17.00
2023-12-07T09:03:55.533Z,20.60
2023-12-07T09:07:00.909Z,22.13
2023-12-07T09:10:05.109Z,17.43
2023-12-07T09:13:08.883Z,17.00
2023-12-07T09:16:12.754Z,20.60
2023-12-07T09:19:16.788Z,15.63
2023-12-07T09:22:26.498Z,20.73
2023-12-07T09:25:36.527Z,19.97
2023-12-07T09:28:43.952Z,20.77
2023-12-07T09:31:50.121Z,19.00
2023-12-07T09:34:54.473Z,17.57
2023-12-07T09:37:59.810Z,15.13
2023-12-07T09:41:04.620Z,17.87
2023-12-07T09:44:08.510Z,17.23
2023-12-07T09:47:15.222Z,19.30
2023-12-07T09:50:22.730Z,17.03
2023-12-07T09:53:30.114Z,15.93
2023-12-07T09:56:33.989Z,16.27
2023-12-07T09:59:38.265Z,20.20
2023-12-07T10:02:43.868Z,15.60
2023-12-07T10:05:58.272Z,17.97
2023-12-07T10:09:14.710Z,17.07
2023-12-07T10:12:21.200Z,19.70
2023-12-07T10:15:27.350Z,17.47
2023-12-07T10:18:31.202Z,17.83
2023-12-07T10:21:35.572Z,17.67
2023-12-07T10:24:40.794Z,18.67
2023-12-07T10:27:45.041Z,18.27
2023-12-07T10:30:48.979Z,23.37
2023-12-07T10:33:53.292Z,15.27
2023-12-07T10:36:59.168Z,19.43
2023-12-07T10:40:07.066Z,21.47
2023-12-07T10:43:11.453Z,18.37
2023-12-07T10:46:18.425Z,18.90
2023-12-07T10:49:32.514Z,17.00
2023-12-07T10:52:42.420Z,17.20
2023-12-07T10:55:54.606Z,16.57
2023-12-07T10:59:01.259Z,15.07
2023-12-07T11:02:08.371Z,17.17
2023-12-07T11:05:12.673Z,17.00
2023-12-07T11:08:27.466Z,17.40
2023-12-07T11:11:41.565Z,15.03
2023-12-07T11:14:46.240Z,14.97
2023-12-07T11:17:55.412Z,15.40
2023-12-07T11:21:00.750Z,13.63
2023-12-07T11:24:06.146Z,16.43
2023-12-07T11:27:11.349Z,15.57
2023-12-07T11:30:17.337Z,14.80
2023-12-07T11:33:22.482Z,15.10
2023-12-07T11:36:27.119Z,17.37
2023-12-07T11:39:37.206Z,15.50
2023-12-07T11:42:44.394Z,16.20
2023-12-07T11:45:52.676Z,14.97
2023-12-07T11:48:58.296Z,16.17
2023-12-07T11:52:02.626Z,16.73
2023-12-07T11:55:07.650Z,22.90
2023-12-07T11:58:16.398Z,17.73
2023-12-07T12:01:20.291Z,17.40
2023-12-07T12:04:24.792Z,17.00
2023-12-07T12:07:29.065Z,17.93
2023-12-07T12:10:32.930Z,16.53
2023-12-07T12:13:39.145Z,15.93
2023-12-07T12:16:43.256Z,16.17
2023-12-07T12:19:47.169Z,15.87
2023-12-07T12:22:54.638Z,23.73
2023-12-07T12:25:59.420Z,17.40
2023-12-07T12:29:05.272Z,14.17
2023-12-07T12:32:11.539Z,17.07
2023-12-07T12:35:16.902Z,18.27
2023-12-07T12:38:27.717Z,19.70
2023-12-07T12:41:40.407Z,19.53
2023-12-07T12:44:47.290Z,18.83
2023-12-07T12:47:51.410Z,19.07
2023-12-07T12:50:55.417Z,16.90
2023-12-07T12:54:01.958Z,19.93
2023-12-07T12:57:09.114Z,18.27
2023-12-07T13:00:16.397Z,18.27
2023-12-07T13:03:20.360Z,16.90
2023-12-07T13:06:24.203Z,17.57
2023-12-07T13:09:28.114Z,17.27
2023-12-07T13:12:35.735Z,17.87
2023-12-07T13:15:41.213Z,14.80
2023-12-07T13:18:45.166Z,16.37
2023-12-07T13:21:49.020Z,19.27
2023-12-07T13:24:52.781Z,17.13
2023-12-07T13:27:56.737Z,20.10
2023-12-07T13:31:01.889Z,19.13
2023-12-07T13:34:09.232Z,16.77
2023-12-07T13:37:16.047Z,21.93
2023-12-07T13:40:19.983Z,22.10
2023-12-07T13:43:25.339Z,20.50
2023-12-07T13:46:31.369Z,20.17
2023-12-07T13:49:35.381Z,20.77
2023-12-07T13:52:39.518Z,18.33
2023-12-07T13:55:43.666Z,19.77
2023-12-07T13:58:47.579Z,16.70
2023-12-07T14:01:52.799Z,17.57
2023-12-07T14:04:56.872Z,19.90
2023-12-07T14:08:01.001Z,18.80
2023-12-07T14:11:04.828Z,17.47
2023-12-07T14:14:08.639Z,16.63
2023-12-07T14:17:15.077Z,19.93
2023-12-07T14:20:34.657Z,18.87
2023-12-07T14:23:45.406Z,20.97
2023-12-07T14:26:56.107Z,22.10
2023-12-07T14:30:00.357Z,18.83
2023-12-07T14:33:05.890Z,21.03
2023-12-07T14:36:13.833Z,16.97
2023-12-07T14:39:18.935Z,22.40
2023-12-07T14:42:23.277Z,20.33
2023-12-07T14:45:29.613Z,19.80
2023-12-07T14:48:35.046Z,17.97
2023-12-07T14:51:39.169Z,58.57
2023-12-07T14:54:43.059Z,43.17
2023-12-07T14:57:49.457Z,22.43
2023-12-07T15:00:55.354Z,22.87
2023-12-07T15:04:01.105Z,24.37
2023-12-07T15:07:06.360Z,25.90
2023-12-07T15:10:10.925Z,24.30
2023-12-07T15:13:15.292Z,23.40
2023-12-07T15:16:19.255Z,20.77
2023-12-07T15:19:24.562Z,18.10
2023-12-07T15:22:29.374Z,18.47
2023-12-07T15:25:33.466Z,21.60
2023-12-07T15:28:37.521Z,22.10
2023-12-07T15:31:41.354Z,19.47
2023-12-07T15:34:46.516Z,23.67
2023-12-07T15:37:50.331Z,21.30
2023-12-07T15:40:56.962Z,19.90
2023-12-07T15:44:00.796Z,20.43
2023-12-07T15:47:04.944Z,20.93
2023-12-07T15:50:12.617Z,20.70
2023-12-07T15:53:16.474Z,23.93
2023-12-07T15:56:24.654Z,22.53
2023-12-07T15:59:30.989Z,22.63
2023-12-07T16:02:36.032Z,27.23
2023-12-07T16:05:41.400Z,21.57
2023-12-07T16:08:46.174Z,23.13
2023-12-07T16:11:50.026Z,24.60
2023-12-07T16:14:57.426Z,26.03
2023-12-07T16:18:01.382Z,23.07
2023-12-07T16:21:09.113Z,21.73
2023-12-07T16:24:13.821Z,20.20
2023-12-07T16:27:17.591Z,24.10
2023-12-07T16:30:21.353Z,22.20
2023-12-07T16:33:25.258Z,21.10
2023-12-07T16:36:30.496Z,28.90
2023-12-07T16:39:34.311Z,25.57
2023-12-07T16:42:39.714Z,23.67
2023-12-07T16:45:43.572Z,24.13
2023-12-07T16:48:47.524Z,21.30
2023-12-07T16:51:53.113Z,24.10
2023-12-07T16:54:57.003Z,24.73
2023-12-07T16:58:00.834Z,25.23
2023-12-07T17:01:05.127Z,26.67
2023-12-07T17:04:09.285Z,24.80
2023-12-07T17:07:14.682Z,22.87
2023-12-07T17:10:18.605Z,29.53
2023-12-07T17:13:22.371Z,22.97
2023-12-07T17:16:26.264Z,29.07
2023-12-07T17:19:35.324Z,31.27
2023-12-07T17:22:43.649Z,30.27
2023-12-07T17:25:47.524Z,28.17
2023-12-07T17:28:51.245Z,47.70
2023-12-07T17:31:55.132Z,38.10
2023-12-07T17:35:00.152Z,45.90
2023-12-07T17:38:05.399Z,39.00
2023-12-07T17:41:10.743Z,26.90
2023-12-07T17:44:14.562Z,34.97
2023-12-07T17:47:18.852Z,29.33
2023-12-07T17:50:22.999Z,30.90
2023-12-07T17:53:28.399Z,28.20
2023-12-07T17:56:32.106Z,29.53
2023-12-07T17:59:36.053Z,37.63
2023-12-07T18:02:40.083Z,50.30
2023-12-07T18:05:44.047Z,34.57
2023-12-07T18:08:49.240Z,35.30
2023-12-07T18:11:53.478Z,38.33
2023-12-07T18:14:57.760Z,33.50
2023-12-07T18:18:01.763Z,32.77
2023-12-07T18:21:07.298Z,32.03
2023-12-07T18:24:13.018Z,36.40
2023-12-07T18:27:17.108Z,34.87
2023-12-07T18:30:20.972Z,37.23
2023-12-07T18:33:24.830Z,30.93
2023-12-07T18:36:28.720Z,33.23
2023-12-07T18:39:34.063Z,38.30
2023-12-07T18:42:38.493Z,44.73
2023-12-07T18:45:43.411Z,42.23
2023-12-07T18:48:47.369Z,35.03
2023-12-07T18:51:51.235Z,48.30
2023-12-07T18:54:56.422Z,51.90
2023-12-07T18:58:00.280Z,38.10
2023-12-07T19:01:04.805Z,74.33
2023-12-07T19:04:08.785Z,42.20
2023-12-07T19:07:12.832Z,30.00
2023-12-07T19:10:18.663Z,47.47
2023-12-07T19:13:22.543Z,35.87
2023-12-07T19:16:26.278Z,34.83
2023-12-07T19:19:30.810Z,30.47
2023-12-07T19:22:34.537Z,36.20
2023-12-07T19:25:39.993Z,33.17
2023-12-07T19:28:43.910Z,34.23
2023-12-07T19:31:47.715Z,36.00
2023-12-07T19:34:51.537Z,35.70
2023-12-07T19:37:55.328Z,39.90
2023-12-07T19:41:00.510Z,38.67
2023-12-07T19:44:04.224Z,37.37
2023-12-07T19:47:08.079Z,34.03
2023-12-07T19:50:13.299Z,41.27
2023-12-07T19:53:17.975Z,45.60
2023-12-07T19:56:23.558Z,32.87
2023-12-07T19:59:27.323Z,41.43
2023-12-07T20:02:31.486Z,41.37
2023-12-07T20:05:35.876Z,33.67
2023-12-07T20:08:40.166Z,31.23
2023-12-07T20:11:45.781Z,37.17
2023-12-07T20:14:50.044Z,36.13
2023-12-07T20:17:53.928Z,32.47
2023-12-07T20:21:00.242Z,35.60
2023-12-07T20:24:04.542Z,35.93
2023-12-07T20:27:09.866Z,32.93
2023-12-07T20:30:14.772Z,34.47
2023-12-07T20:33:18.921Z,34.90
2023-12-07T20:36:22.893Z,34.90
2023-12-07T20:39:26.861Z,30.23
2023-12-07T20:42:32.173Z,32.83
2023-12-07T20:45:35.889Z,32.43
2023-12-07T20:48:39.840Z,32.77
2023-12-07T20:51:44.037Z,34.40
2023-12-07T20:54:48.634Z,31.97
2023-12-07T20:57:53.848Z,28.50
2023-12-07T21:00:57.811Z,35.33
2023-12-07T21:04:01.840Z,35.03
2023-12-07T21:07:06.076Z,34.77
2023-12-07T21:10:10.197Z,36.23
2023-12-07T21:13:15.705Z,32.00
2023-12-07T21:16:19.634Z,31.87
2023-12-07T21:19:25.532Z,33.47
2023-12-07T21:22:29.588Z,33.90
2023-12-07T21:25:33.397Z,32.87
2023-12-07T21:28:38.562Z,42.50
2023-12-07T21:31:42.341Z,58.60
2023-12-07T21:34:46.467Z,96.10
2023-12-07T21:37:50.437Z,130.00
2023-12-07T21:40:54.184Z,110.40
2023-12-07T21:43:59.477Z,99.77
2023-12-07T21:47:06.421Z,72.20
2023-12-07T21:50:10.797Z,68.23
2023-12-07T21:53:14.674Z,58.90
2023-12-07T21:56:18.417Z,46.70
2023-12-07T21:59:23.551Z,33.30
2023-12-07T22:02:27.332Z,33.03
2023-12-07T22:05:31.590Z,31.23
2023-12-07T22:08:35.500Z,34.40
2023-12-07T22:11:40.866Z,36.90
2023-12-07T22:14:46.038Z,41.77
2023-12-07T22:17:50.015Z,49.77
2023-12-07T22:20:53.823Z,49.10
2023-12-07T22:23:57.690Z,52.17
2023-12-07T22:27:01.450Z,43.17
2023-12-07T22:30:08.552Z,41.37
2023-12-07T22:33:14.326Z,59.23
2023-12-07T22:36:19.011Z,89.33
2023-12-07T22:39:22.812Z,150.17
2023-12-07T22:42:26.808Z,126.73
2023-12-07T22:45:32.254Z,120.10
2023-12-07T22:48:36.153Z,137.27
2023-12-07T22:51:39.928Z,222.37
2023-12-07T22:54:43.788Z,188.20
2023-12-07T22:57:47.580Z,124.30
2023-12-07T23:00:53.468Z,55.87
2023-12-07T23:03:59.152Z,52.30
2023-12-07T23:07:03.275Z,31.07
2023-12-07T23:10:08.650Z,32.43
2023-12-07T23:13:12.503Z,36.13
2023-12-07T23:16:18.059Z,107.43
2023-12-07T23:19:22.037Z,301.20
2023-12-07T23:22:25.875Z,476.97
2023-12-07T23:25:29.694Z,420.27
2023-12-07T23:28:33.395Z,334.33
2023-12-07T23:31:38.755Z,327.77
2023-12-07T23:34:42.862Z,300.27
2023-12-07T23:37:46.877Z,210.00
2023-12-07T23:40:50.690Z,181.70
2023-12-07T23:43:55.411Z,152.97
2023-12-07T23:47:00.851Z,79.33
2023-12-07T23:50:04.911Z,95.23
2023-12-07T23:53:08.718Z,52.27
2023-12-07T23:56:13.288Z,55.53
2023-12-07T23:59:17.060Z,41.53
